createdAt,value
2018-07-28T00:01:28.965Z,7.83
2018-07-28T00:03:57.910Z,6.87
2018-07-28T00:06:26.981Z,6.73
2018-07-28T00:08:55.862Z,7.13
2018-07-28T00:11:24.732Z,7.57
2018-07-28T00:14:13.096Z,6.80
2018-07-28T00:16:42.004Z,6.53
2018-07-28T00:19:10.925Z,7.20
2018-07-28T00:21:39.778Z,6.83
2018-07-28T00:24:08.646Z,7.97
2018-07-28T00:26:38.664Z,7.60
2018-07-28T00:29:07.807Z,8.17
2018-07-28T00:31:38.812Z,8.20
2018-07-28T00:34:10.796Z,8.53
2018-07-28T00:36:50.283Z,7.37
2018-07-28T00:39:19.220Z,8.70
2018-07-28T00:41:48.112Z,8.80
2018-07-28T00:44:16.975Z,7.90
2018-07-28T00:46:58.709Z,7.13
2018-07-28T00:49:37.529Z,7.43
2018-07-28T00:52:06.494Z,7.10
2018-07-28T00:54:35.376Z,7.00
2018-07-28T00:57:04.314Z,8.53
2018-07-28T00:59:33.181Z,8.97
2018-07-28T01:02:05.372Z,8.97
2018-07-28T01:04:34.289Z,10.77
2018-07-28T01:07:10.925Z,7.70
2018-07-28T01:09:39.812Z,9.23
2018-07-28T01:12:08.798Z,9.97
2018-07-28T01:14:37.744Z,9.27
2018-07-28T01:17:12.442Z,9.83
2018-07-28T01:19:41.332Z,8.27
2018-07-28T01:22:10.220Z,8.20
2018-07-28T01:27:56.806Z,7.40
2018-07-28T01:30:28.756Z,10.73
2018-07-28T01:33:01.872Z,8.63
2018-07-28T01:35:30.984Z,9.30
2018-07-28T01:38:00.910Z,9.20
2018-07-28T01:40:29.838Z,7.43
2018-07-28T01:43:08.623Z,7.70
2018-07-28T01:45:37.496Z,8.40
2018-07-28T01:48:06.791Z,8.73
2018-07-28T01:50:35.765Z,7.63
2018-07-28T01:53:04.644Z,8.73
2018-07-28T01:55:33.512Z,9.43
2018-07-28T01:58:19.609Z,8.40
2018-07-28T02:01:05.457Z,8.80
2018-07-28T02:03:34.495Z,8.90
2018-07-28T02:06:23.291Z,10.47
2018-07-28T02:08:52.220Z,8.00
2018-07-28T02:11:21.131Z,8.87
2018-07-28T02:13:50.137Z,7.50
2018-07-28T02:16:19.129Z,10.27
2018-07-28T02:18:48.004Z,10.00
2018-07-28T02:21:23.108Z,8.07
2018-07-28T02:23:52.008Z,9.03
2018-07-28T02:26:21.024Z,8.93
2018-07-28T02:28:50.053Z,8.97
2018-07-28T02:31:23.021Z,7.70
2018-07-28T02:33:51.896Z,7.90
2018-07-28T02:36:27.355Z,8.53
2018-07-28T02:38:56.367Z,8.00
2018-07-28T02:41:34.964Z,8.03
2018-07-28T02:44:04.537Z,8.30
2018-07-28T02:46:33.377Z,8.83
2018-07-28T02:49:02.262Z,9.17
2018-07-28T02:51:31.277Z,8.17
2018-07-28T02:54:04.303Z,10.53
2018-07-28T02:56:33.176Z,7.70
2018-07-28T02:59:03.089Z,17.73
2018-07-28T03:01:31.981Z,13.83
2018-07-28T03:04:02.956Z,17.63
2018-07-28T03:06:56.294Z,21.87
2018-07-28T03:09:30.829Z,17.70
2018-07-28T03:12:11.401Z,14.40
2018-07-28T03:17:52.671Z,14.13
2018-07-28T03:20:21.573Z,18.23
2018-07-28T03:23:03.656Z,15.70
2018-07-28T03:25:39.235Z,13.53
2018-07-28T03:28:19.460Z,12.87
2018-07-28T03:30:48.338Z,18.47
2018-07-28T03:33:17.201Z,11.70
2018-07-28T03:35:46.068Z,11.50
2018-07-28T03:38:14.977Z,13.63
2018-07-28T03:43:36.985Z,12.93
2018-07-28T03:46:26.436Z,12.67
2018-07-28T03:48:55.326Z,13.93
2018-07-28T03:51:24.625Z,10.13
2018-07-28T03:53:53.976Z,11.83
2018-07-28T03:56:22.915Z,17.13
2018-07-28T03:58:52.252Z,15.80
2018-07-28T04:01:22.049Z,10.63
2018-07-28T04:03:51.330Z,12.23
2018-07-28T04:06:21.262Z,14.70
2018-07-28T04:08:50.134Z,17.50
2018-07-28T04:11:31.548Z,14.57
2018-07-28T04:14:00.424Z,11.60
2018-07-28T04:16:29.307Z,14.13
2018-07-28T04:18:58.188Z,13.77
2018-07-28T04:21:27.113Z,12.60
2018-07-28T04:23:55.992Z,14.60
2018-07-28T04:26:24.940Z,13.03
2018-07-28T04:28:53.955Z,12.40
2018-07-28T04:31:22.922Z,12.63
2018-07-28T04:33:55.458Z,10.87
2018-07-28T04:36:28.860Z,11.70
2018-07-28T04:38:58.554Z,11.47
2018-07-28T04:41:29.609Z,11.33
2018-07-28T04:46:55.404Z,12.00
2018-07-28T04:49:25.396Z,11.47
2018-07-28T04:52:14.094Z,11.20
2018-07-28T04:54:55.338Z,11.90
2018-07-28T04:57:47.833Z,10.43
2018-07-28T05:00:16.800Z,13.87
2018-07-28T05:05:49.847Z,18.40
2018-07-28T05:08:28.944Z,13.77
2018-07-28T05:10:58.162Z,12.67
2018-07-28T05:13:29.256Z,12.40
2018-07-28T05:16:00.258Z,10.00
2018-07-28T05:18:41.539Z,12.23
2018-07-28T05:21:11.447Z,14.53
2018-07-28T05:23:47.477Z,13.00
2018-07-28T05:26:17.470Z,12.57
2018-07-28T05:28:46.404Z,17.13
2018-07-28T05:31:27.661Z,13.93
2018-07-28T05:34:01.830Z,15.90
2018-07-28T05:36:30.868Z,15.13
2018-07-28T05:39:03.312Z,13.13
2018-07-28T05:41:32.486Z,18.50
2018-07-28T05:44:01.679Z,17.20
2018-07-28T05:46:31.090Z,10.87
2018-07-28T05:49:06.256Z,15.13
2018-07-28T05:51:58.279Z,11.83
2018-07-28T05:54:27.181Z,14.93
2018-07-28T05:56:56.257Z,16.43
2018-07-28T05:59:25.166Z,16.73
2018-07-28T06:01:54.031Z,17.87
2018-07-28T06:07:18.880Z,12.63
2018-07-28T06:09:47.834Z,10.93
2018-07-28T06:12:16.792Z,10.40
2018-07-28T06:14:53.523Z,10.30
2018-07-28T06:17:32.351Z,13.37
2018-07-28T06:20:03.456Z,8.57
2018-07-28T06:22:32.458Z,9.00
2018-07-28T06:25:02.712Z,10.20
2018-07-28T06:27:35.770Z,9.30
2018-07-28T06:30:09.058Z,10.07
2018-07-28T06:32:41.436Z,10.77
2018-07-28T06:35:10.541Z,8.37
2018-07-28T06:37:41.472Z,6.80
2018-07-28T06:40:15.519Z,9.83
2018-07-28T06:42:44.392Z,12.20
2018-07-28T06:45:13.256Z,14.40
2018-07-28T06:47:46.270Z,12.67
2018-07-28T06:50:15.143Z,10.60
2018-07-28T06:52:44.095Z,13.87
2018-07-28T06:55:26.233Z,12.83
2018-07-28T06:58:00.491Z,20.10
2018-07-28T07:00:29.440Z,20.80
2018-07-28T07:02:58.412Z,19.43
2018-07-28T07:05:27.318Z,22.37
2018-07-28T07:08:06.926Z,15.53
2018-07-28T07:10:37.016Z,17.80
2018-07-28T07:13:10.372Z,19.33
2018-07-28T07:15:46.887Z,18.73
2018-07-28T07:18:17.789Z,17.63
2018-07-28T07:21:06.645Z,14.70
2018-07-28T07:23:36.638Z,13.90
2018-07-28T07:26:06.616Z,17.67
2018-07-28T07:28:41.514Z,19.57
2018-07-28T07:31:12.454Z,22.70
2018-07-28T07:33:41.615Z,19.13
2018-07-28T07:36:10.584Z,16.93
2018-07-28T07:38:58.064Z,15.17
2018-07-28T07:41:26.944Z,17.43
2018-07-28T07:43:57.272Z,13.63
2018-07-28T07:46:37.548Z,11.93
2018-07-28T07:49:08.661Z,11.93
2018-07-28T07:51:38.619Z,14.97
2018-07-28T07:54:09.612Z,10.00
2018-07-28T07:59:35.984Z,9.57
2018-07-28T08:02:10.650Z,12.07
2018-07-28T08:04:40.643Z,10.83
2018-07-28T08:07:16.812Z,9.77
2018-07-28T08:09:45.846Z,9.20
2018-07-28T08:12:22.568Z,9.80
2018-07-28T08:14:51.866Z,14.13
2018-07-28T08:17:20.777Z,10.90
2018-07-28T08:19:50.733Z,8.53
2018-07-28T08:22:30.325Z,8.73
2018-07-28T08:25:07.561Z,13.97
2018-07-28T08:27:40.078Z,11.13
2018-07-28T08:30:12.314Z,9.67
2018-07-28T08:32:54.883Z,12.40
2018-07-28T08:35:24.773Z,10.20
2018-07-28T08:37:54.750Z,10.97
2018-07-28T08:40:28.185Z,13.87
2018-07-28T08:42:57.322Z,11.47
2018-07-28T08:48:21.512Z,10.53
2018-07-28T08:50:57.142Z,9.00
2018-07-28T08:53:44.374Z,12.03
2018-07-28T08:56:19.404Z,15.30
2018-07-28T08:58:54.483Z,9.43
2018-07-28T09:01:23.619Z,10.27
2018-07-28T09:03:56.350Z,8.30
2018-07-28T09:06:26.416Z,9.27
2018-07-28T09:08:55.931Z,10.47
2018-07-28T09:11:25.923Z,9.37
2018-07-28T09:14:01.490Z,7.40
2018-07-28T09:16:34.266Z,9.33
2018-07-28T09:19:13.083Z,9.10
2018-07-28T09:21:42.150Z,8.70
2018-07-28T09:24:11.727Z,11.43
2018-07-28T09:26:56.980Z,11.87
2018-07-28T09:29:26.009Z,13.37
2018-07-28T09:31:55.438Z,12.43
2018-07-28T09:34:29.003Z,10.83
2018-07-28T09:36:58.549Z,19.37
2018-07-28T09:39:32.645Z,11.23
2018-07-28T09:42:24.397Z,13.83
2018-07-28T09:44:58.704Z,12.73
2018-07-28T09:47:30.856Z,12.47
2018-07-28T09:50:00.862Z,11.87
2018-07-28T09:52:30.090Z,9.77
2018-07-28T09:55:00.253Z,9.47
2018-07-28T10:00:27.842Z,9.63
2018-07-28T10:03:08.747Z,8.90
2018-07-28T10:05:44.392Z,8.97
2018-07-28T10:08:13.722Z,9.20
2018-07-28T10:10:43.900Z,7.73
2018-07-28T10:13:14.107Z,7.67
2018-07-28T10:15:49.493Z,8.83
2018-07-28T10:18:23.099Z,8.13
2018-07-28T10:20:56.053Z,9.87
2018-07-28T10:23:25.205Z,9.73
2018-07-28T10:25:55.728Z,10.03
2018-07-28T10:28:24.795Z,9.73
2018-07-28T10:31:07.203Z,8.50
2018-07-28T10:33:41.870Z,9.27
2018-07-28T10:36:12.136Z,9.07
2018-07-28T10:38:47.812Z,8.80
2018-07-28T10:41:17.264Z,8.77
2018-07-28T10:43:48.585Z,9.97
2018-07-28T10:46:21.954Z,8.77
2018-07-28T10:48:53.245Z,8.50
2018-07-28T10:51:38.767Z,9.70
2018-07-28T10:54:12.073Z,10.10
2018-07-28T10:56:55.026Z,10.67
2018-07-28T10:59:26.163Z,13.13
2018-07-28T11:01:56.951Z,10.57
2018-07-28T11:04:31.494Z,16.63
2018-07-28T11:07:05.703Z,13.63
2018-07-28T11:09:39.162Z,15.27
2018-07-28T11:12:11.906Z,13.50
2018-07-28T11:14:41.889Z,11.23
2018-07-28T11:17:24.736Z,10.20
2018-07-28T11:19:54.640Z,8.67
2018-07-28T11:22:25.549Z,9.93
2018-07-28T11:24:58.045Z,9.53
2018-07-28T11:27:29.267Z,6.77
2018-07-28T11:29:59.415Z,6.87
2018-07-28T11:32:43.097Z,9.13
2018-07-28T11:35:24.261Z,8.17
2018-07-28T11:38:07.407Z,8.27
2018-07-28T11:40:47.833Z,9.10
2018-07-28T11:43:29.246Z,8.30
2018-07-28T11:46:00.393Z,10.03
2018-07-28T11:48:35.152Z,10.13
2018-07-28T11:51:21.639Z,8.40
2018-07-28T11:54:08.537Z,8.63
2018-07-28T11:56:38.518Z,10.17
2018-07-28T11:59:14.053Z,9.83
2018-07-28T12:01:48.818Z,9.53
2018-07-28T12:04:17.758Z,8.30
2018-07-28T12:06:47.073Z,9.23
2018-07-28T12:09:16.295Z,9.87
2018-07-28T12:11:47.298Z,10.10
2018-07-28T12:14:21.042Z,7.63
2018-07-28T12:16:52.551Z,6.37
2018-07-28T12:19:21.517Z,6.43
2018-07-28T12:21:52.536Z,8.33
2018-07-28T12:24:29.973Z,8.13
2018-07-28T12:27:08.407Z,7.70
2018-07-28T12:29:57.269Z,9.30
2018-07-28T12:32:26.580Z,10.97
2018-07-28T12:35:01.061Z,10.97
2018-07-28T12:37:37.793Z,11.27
2018-07-28T12:40:11.315Z,8.30
2018-07-28T12:42:40.490Z,8.87
2018-07-28T12:45:09.458Z,7.20
2018-07-28T12:47:38.448Z,9.77
2018-07-28T12:50:07.667Z,9.40
2018-07-28T12:52:37.721Z,11.83
2018-07-28T12:55:07.661Z,8.30
2018-07-28T12:57:38.624Z,7.93
2018-07-28T13:00:07.613Z,8.40
2018-07-28T13:02:40.306Z,9.03
2018-07-28T13:05:13.429Z,9.13
2018-07-28T13:07:43.399Z,10.00
2018-07-28T13:10:24.654Z,8.70
2018-07-28T13:12:57.455Z,9.77
2018-07-28T13:15:28.400Z,11.37
2018-07-28T13:17:58.482Z,8.80
2018-07-28T13:20:31.459Z,8.83
2018-07-28T13:23:00.346Z,7.57
2018-07-28T13:25:29.745Z,7.43
2018-07-28T13:27:59.240Z,9.53
2018-07-28T13:30:28.700Z,7.30
2018-07-28T13:33:02.234Z,7.80
2018-07-28T13:35:51.953Z,8.83
2018-07-28T13:38:33.754Z,7.70
2018-07-28T13:41:02.658Z,8.63
2018-07-28T13:43:31.604Z,8.33
2018-07-28T13:46:04.440Z,7.70
2018-07-28T13:48:50.338Z,6.83
2018-07-28T13:51:19.191Z,8.70
2018-07-28T13:53:48.177Z,8.00
2018-07-28T13:56:17.049Z,10.67
2018-07-28T13:58:45.956Z,7.60
2018-07-28T14:01:15.588Z,7.20
2018-07-28T14:03:44.712Z,7.50
2018-07-28T14:06:13.851Z,7.30
2018-07-28T14:08:42.755Z,7.77
2018-07-28T14:11:11.707Z,8.77
2018-07-28T14:13:40.942Z,7.37
2018-07-28T14:16:10.648Z,10.70
2018-07-28T14:18:41.064Z,9.20
2018-07-28T14:21:11.017Z,5.57
2018-07-28T14:23:43.356Z,7.93
2018-07-28T14:26:17.700Z,6.90
2018-07-28T14:28:48.358Z,9.80
2018-07-28T14:31:18.610Z,6.33
2018-07-28T14:33:51.304Z,5.53
2018-07-28T14:36:27.371Z,6.90
2018-07-28T14:38:57.303Z,9.47
2018-07-28T14:41:27.856Z,8.27
2018-07-28T14:43:57.475Z,5.47
2018-07-28T14:46:26.754Z,5.60
2018-07-28T14:48:58.087Z,6.90
2018-07-28T14:51:27.354Z,8.60
2018-07-28T14:53:57.514Z,5.20
2018-07-28T14:56:27.022Z,6.27
2018-07-28T14:59:00.089Z,7.73
2018-07-28T15:01:29.464Z,5.20
2018-07-28T15:03:58.835Z,6.87
2018-07-28T15:06:28.372Z,5.87
2018-07-28T15:09:00.289Z,7.83
2018-07-28T15:11:30.206Z,7.33
2018-07-28T15:14:00.038Z,6.07
2018-07-28T15:16:29.504Z,6.23
2018-07-28T15:18:59.152Z,5.83
2018-07-28T15:21:29.561Z,5.83
2018-07-28T15:23:58.934Z,7.17
2018-07-28T15:26:27.792Z,8.83
2018-07-28T15:28:56.769Z,7.00
2018-07-28T15:31:25.821Z,6.37
2018-07-28T15:33:54.872Z,4.63
2018-07-28T15:36:26.098Z,5.43
2018-07-28T15:38:56.143Z,5.77
2018-07-28T15:41:25.069Z,6.67
2018-07-28T15:43:57.402Z,5.07
2018-07-28T15:46:26.358Z,5.43
2018-07-28T15:48:59.138Z,4.27
2018-07-28T15:51:28.125Z,4.70
2018-07-28T15:53:57.088Z,4.57
2018-07-28T15:56:26.033Z,6.03
2018-07-28T15:58:54.929Z,4.67
2018-07-28T16:01:23.829Z,4.83
2018-07-28T16:03:53.159Z,5.63
2018-07-28T16:06:22.067Z,4.53
2018-07-28T16:08:51.136Z,5.10
2018-07-28T16:11:20.044Z,5.47
2018-07-28T16:13:48.935Z,6.33
2018-07-28T16:16:17.969Z,5.00
2018-07-28T16:18:48.315Z,7.37
2018-07-28T16:21:17.269Z,4.60
2018-07-28T16:23:46.405Z,4.27
2018-07-28T16:26:15.749Z,6.33
2018-07-28T16:28:47.778Z,4.63
2018-07-28T16:31:24.973Z,6.87
2018-07-28T16:33:54.000Z,7.20
2018-07-28T16:36:23.056Z,8.20
2018-07-28T16:38:51.984Z,8.70
2018-07-28T16:41:21.016Z,5.37
2018-07-28T16:43:49.840Z,6.30
2018-07-28T16:46:19.766Z,6.33
2018-07-28T16:48:52.868Z,6.33
2018-07-28T16:51:21.762Z,4.83
2018-07-28T16:54:08.830Z,6.50
2018-07-28T16:56:37.872Z,7.73
2018-07-28T16:59:06.821Z,5.80
2018-07-28T17:01:35.715Z,6.13
2018-07-28T17:04:04.669Z,6.87
2018-07-28T17:06:34.668Z,5.43
2018-07-28T17:09:04.681Z,6.37
2018-07-28T17:11:45.965Z,7.63
2018-07-28T17:14:15.003Z,6.33
2018-07-28T17:16:49.596Z,4.23
2018-07-28T17:19:34.905Z,7.13
2018-07-28T17:22:11.414Z,4.83
2018-07-28T17:24:40.310Z,5.10
2018-07-28T17:27:09.202Z,3.40
2018-07-28T17:29:38.088Z,4.30
2018-07-28T17:32:07.237Z,5.13
2018-07-28T17:34:36.105Z,8.63
2018-07-28T17:37:09.189Z,4.10
2018-07-28T17:39:49.783Z,6.13
2018-07-28T17:42:18.680Z,7.93
2018-07-28T17:44:47.555Z,6.20
2018-07-28T17:47:16.456Z,4.63
2018-07-28T17:49:50.511Z,3.17
2018-07-28T17:52:43.471Z,4.30
2018-07-28T17:55:15.082Z,3.80
2018-07-28T17:57:45.066Z,4.83
2018-07-28T18:00:15.928Z,4.43
2018-07-28T18:02:50.378Z,4.87
2018-07-28T18:05:23.876Z,7.23
2018-07-28T18:07:53.805Z,3.53
2018-07-28T18:10:22.736Z,6.43
2018-07-28T18:12:51.604Z,3.60
2018-07-28T18:15:20.471Z,5.33
2018-07-28T18:17:50.449Z,4.83
2018-07-28T18:20:20.860Z,6.30
2018-07-28T18:22:50.160Z,6.07
2018-07-28T18:25:19.584Z,6.77
2018-07-28T18:27:48.963Z,5.53
2018-07-28T18:30:18.168Z,8.77
2018-07-28T18:32:47.561Z,9.27
2018-07-28T18:35:16.939Z,6.13
2018-07-28T18:37:46.678Z,5.70
2018-07-28T18:40:17.979Z,6.57
2018-07-28T18:42:52.409Z,6.17
2018-07-28T18:45:21.495Z,5.90
2018-07-28T18:47:50.349Z,7.13
2018-07-28T18:50:25.217Z,7.17
2018-07-28T18:52:54.091Z,5.77
2018-07-28T18:55:23.316Z,4.83
2018-07-28T18:57:54.276Z,6.90
2018-07-28T19:00:23.186Z,6.17
2018-07-28T19:02:55.525Z,7.83
2018-07-28T19:05:25.456Z,5.20
2018-07-28T19:07:54.343Z,7.17
2018-07-28T19:10:25.284Z,5.47
2018-07-28T19:13:13.691Z,6.63
2018-07-28T19:15:42.552Z,7.33
2018-07-28T19:18:16.909Z,5.90
2018-07-28T19:20:45.719Z,6.90
2018-07-28T19:23:20.084Z,5.67
2018-07-28T19:25:54.552Z,7.87
2018-07-28T19:28:28.747Z,8.60
2018-07-28T19:30:57.687Z,6.63
2018-07-28T19:33:26.526Z,7.20
2018-07-28T19:36:00.827Z,6.97
2018-07-28T19:38:34.453Z,4.97
2018-07-28T19:41:03.264Z,7.23
2018-07-28T19:43:33.253Z,6.47
2018-07-28T19:46:04.308Z,5.47
2018-07-28T19:48:33.180Z,7.23
2018-07-28T19:51:15.011Z,7.83
2018-07-28T19:53:43.896Z,5.60
2018-07-28T19:56:12.901Z,6.57
2018-07-28T19:58:41.869Z,6.50
2018-07-28T20:01:15.822Z,7.93
2018-07-28T20:03:44.817Z,9.13
2018-07-28T20:06:13.728Z,8.20
2018-07-28T20:08:44.697Z,7.50
2018-07-28T20:11:13.984Z,12.67
2018-07-28T20:13:43.938Z,12.50
2018-07-28T20:16:13.900Z,14.30
2018-07-28T20:18:47.536Z,11.47
2018-07-28T20:21:16.389Z,10.50
2018-07-28T20:23:51.342Z,11.63
2018-07-28T20:26:20.276Z,15.30
2018-07-28T20:28:49.270Z,11.77
2018-07-28T20:31:26.178Z,12.57
2018-07-28T20:33:58.745Z,12.73
2018-07-28T20:36:28.746Z,12.77
2018-07-28T20:38:57.680Z,10.63
2018-07-28T20:41:26.619Z,14.17
2018-07-28T20:43:56.534Z,9.50
2018-07-28T20:46:30.674Z,12.83
2018-07-28T20:49:01.622Z,11.47
2018-07-28T20:51:30.494Z,11.90
2018-07-28T20:54:15.628Z,11.17
2018-07-28T20:56:46.593Z,13.30
2018-07-28T20:59:18.994Z,11.80
2018-07-28T21:01:52.054Z,14.43
2018-07-28T21:04:20.929Z,12.07
2018-07-28T21:06:50.894Z,13.90
2018-07-28T21:09:19.788Z,14.93
2018-07-28T21:11:48.710Z,13.80
2018-07-28T21:14:24.570Z,11.30
2018-07-28T21:16:57.536Z,14.07
2018-07-28T21:19:26.446Z,10.00
2018-07-28T21:21:55.316Z,12.17
2018-07-28T21:24:43.003Z,15.00
2018-07-28T21:27:11.890Z,10.20
2018-07-28T21:29:40.900Z,11.17
2018-07-28T21:32:24.815Z,11.00
2018-07-28T21:34:53.702Z,13.33
2018-07-28T21:37:33.116Z,9.90
2018-07-28T21:40:14.324Z,12.77
2018-07-28T21:42:43.256Z,11.83
2018-07-28T21:45:12.166Z,11.57
2018-07-28T21:47:41.077Z,14.23
2018-07-28T21:50:10.799Z,11.10
2018-07-28T21:52:45.159Z,12.10
2018-07-28T21:55:14.033Z,10.37
2018-07-28T21:57:42.982Z,12.37
2018-07-28T22:00:11.908Z,11.40
2018-07-28T22:02:40.807Z,10.10
2018-07-28T22:05:09.836Z,9.00
2018-07-28T22:07:38.752Z,9.53
2018-07-28T22:13:10.892Z,12.43
2018-07-28T22:15:44.267Z,8.30
2018-07-28T22:18:13.133Z,6.27
2018-07-28T22:20:47.089Z,12.03
2018-07-28T22:23:32.617Z,9.27
2018-07-28T22:26:08.238Z,8.10
2018-07-28T22:28:48.167Z,5.83
2018-07-28T22:31:17.163Z,9.03
2018-07-28T22:33:48.114Z,11.60
2018-07-28T22:36:28.521Z,10.57
2018-07-28T22:39:12.487Z,10.20
2018-07-28T22:41:49.505Z,8.87
2018-07-28T22:44:19.424Z,9.83
2018-07-28T22:46:53.006Z,12.27
2018-07-28T22:49:25.362Z,11.80
2018-07-28T22:51:55.284Z,9.00
2018-07-28T22:54:24.272Z,12.47
2018-07-28T22:56:58.431Z,11.27
2018-07-28T22:59:34.168Z,9.27
2018-07-28T23:02:03.152Z,12.03
2018-07-28T23:04:34.049Z,10.97
2018-07-28T23:07:06.588Z,8.33
2018-07-28T23:09:35.550Z,9.40
2018-07-28T23:12:04.424Z,12.23
2018-07-28T23:14:33.316Z,7.03
2018-07-28T23:17:02.228Z,10.60
2018-07-28T23:19:31.109Z,8.00
2018-07-28T23:22:17.996Z,10.37
2018-07-28T23:24:46.872Z,11.90
2018-07-28T23:27:16.783Z,8.93
2018-07-28T23:29:50.686Z,8.23
2018-07-28T23:32:19.660Z,9.67
2018-07-28T23:34:50.679Z,11.27
2018-07-28T23:37:19.535Z,9.20
2018-07-28T23:39:48.480Z,9.83
2018-07-28T23:42:17.386Z,8.57
2018-07-28T23:44:46.290Z,8.60
2018-07-28T23:47:15.201Z,11.83
2018-07-28T23:49:44.069Z,12.63
2018-07-28T23:52:12.921Z,13.37
2018-07-28T23:54:48.082Z,6.87
2018-07-28T23:57:17.082Z,9.93
2018-07-28T23:59:45.978Z,7.60
